createdAt,value
2022-12-01T00:01:30.517Z,18.12
2022-12-01T00:03:58.305Z,18.52
2022-12-01T00:06:25.993Z,18.10
2022-12-01T00:09:16.495Z,19.58
2022-12-01T00:11:48.346Z,19.50
2022-12-01T00:14:16.543Z,19.80
2022-12-01T00:16:44.742Z,19.50
2022-12-01T00:19:12.735Z,18.23
2022-12-01T00:21:40.311Z,19.12
2022-12-01T00:24:09.295Z,17.73
2022-12-01T00:26:38.168Z,17.80
2022-12-01T00:29:05.555Z,18.92
2022-12-01T00:31:33.029Z,18.70
2022-12-01T00:34:00.770Z,16.75
2022-12-01T00:36:28.229Z,20.35
2022-12-01T00:38:56.721Z,15.48
2022-12-01T00:41:25.719Z,18.15
2022-12-01T00:43:53.182Z,16.93
2022-12-01T00:46:20.967Z,15.23
2022-12-01T00:48:49.517Z,15.52
2022-12-01T00:51:16.945Z,16.20
2022-12-01T00:53:44.378Z,14.82
2022-12-01T00:56:12.095Z,16.30
2022-12-01T00:58:39.521Z,16.70
2022-12-01T01:01:07.067Z,16.10
2022-12-01T01:03:35.024Z,15.60
2022-12-01T01:06:09.118Z,15.25
2022-12-01T01:08:36.925Z,14.03
2022-12-01T01:11:05.360Z,15.77
2022-12-01T01:13:32.922Z,17.12
2022-12-01T01:16:15.234Z,15.13
2022-12-01T01:18:42.786Z,15.25
2022-12-01T01:21:16.151Z,14.43
2022-12-01T01:23:44.014Z,14.93
2022-12-01T01:26:18.459Z,13.57
2022-12-01T01:28:47.499Z,14.70
2022-12-01T01:31:20.597Z,12.55
2022-12-01T01:33:48.203Z,15.50
2022-12-01T01:36:17.045Z,13.00
2022-12-01T01:38:45.202Z,14.25
2022-12-01T01:41:12.702Z,11.43
2022-12-01T01:43:40.406Z,14.60
2022-12-01T01:46:10.345Z,13.03
2022-12-01T01:48:40.407Z,15.02
2022-12-01T01:51:09.802Z,12.05
2022-12-01T01:53:37.845Z,12.90
2022-12-01T01:56:07.374Z,14.07
2022-12-01T01:58:37.478Z,14.83
2022-12-01T02:01:05.775Z,15.18
2022-12-01T02:03:35.661Z,14.15
2022-12-01T02:06:05.172Z,12.48
2022-12-01T02:08:35.539Z,13.80
2022-12-01T02:11:49.238Z,15.43
2022-12-01T02:14:34.151Z,11.57
2022-12-01T02:17:20.467Z,12.23
2022-12-01T02:20:09.505Z,13.85
2022-12-01T02:23:03.406Z,11.48
2022-12-01T02:25:50.986Z,12.67
2022-12-01T02:28:30.166Z,13.43
2022-12-01T02:31:08.250Z,14.85
2022-12-01T02:33:46.738Z,10.45
2022-12-01T02:36:17.975Z,12.13
2022-12-01T02:39:00.388Z,12.73
2022-12-01T02:41:36.537Z,11.25
2022-12-01T02:44:24.131Z,11.95
2022-12-01T02:46:59.776Z,12.45
2022-12-01T02:49:36.171Z,10.77
2022-12-01T02:52:06.810Z,12.70
2022-12-01T02:54:34.904Z,11.88
2022-12-01T02:57:02.335Z,11.57
2022-12-01T02:59:30.031Z,11.23
2022-12-01T03:02:00.253Z,7.47
2022-12-01T03:04:53.129Z,9.50
2022-12-01T03:07:36.167Z,9.15
2022-12-01T03:10:21.708Z,10.05
2022-12-01T03:13:07.715Z,9.82
2022-12-01T03:16:01.963Z,11.43
2022-12-01T03:18:41.276Z,10.07
2022-12-01T03:21:14.218Z,10.43
2022-12-01T03:23:47.170Z,12.52
2022-12-01T03:26:19.780Z,9.88
2022-12-01T03:28:55.456Z,10.52
2022-12-01T03:31:33.576Z,9.93
2022-12-01T03:34:08.087Z,9.45
2022-12-01T03:36:58.219Z,10.40
2022-12-01T03:39:33.296Z,9.90
2022-12-01T03:42:17.189Z,9.32
2022-12-01T03:44:57.613Z,11.70
2022-12-01T03:47:35.801Z,9.77
2022-12-01T03:50:05.785Z,11.05
2022-12-01T03:52:47.893Z,11.57
2022-12-01T03:55:22.738Z,10.00
2022-12-01T03:57:52.033Z,12.40
2022-12-01T04:00:20.146Z,13.35
2022-12-01T04:02:48.991Z,10.82
2022-12-01T04:05:18.961Z,10.98
2022-12-01T04:07:50.399Z,9.98
2022-12-01T04:10:17.927Z,12.30
2022-12-01T04:12:45.378Z,11.90
2022-12-01T04:15:14.980Z,10.60
2022-12-01T04:17:44.317Z,10.50
2022-12-01T04:20:14.675Z,11.35
2022-12-01T04:22:42.461Z,9.30
2022-12-01T04:25:10.246Z,10.95
2022-12-01T04:27:38.025Z,11.57
2022-12-01T04:30:07.439Z,9.50
2022-12-01T04:32:39.894Z,11.20
2022-12-01T04:35:09.197Z,11.23
2022-12-01T04:37:37.434Z,9.15
2022-12-01T04:40:05.930Z,11.65
2022-12-01T04:42:33.598Z,10.80
2022-12-01T04:45:01.049Z,14.60
2022-12-01T04:47:28.442Z,10.67
2022-12-01T04:49:56.189Z,11.43
2022-12-01T04:52:23.639Z,10.00
2022-12-01T04:54:51.124Z,12.05
2022-12-01T04:57:18.873Z,12.75
2022-12-01T04:59:46.404Z,12.17
2022-12-01T05:02:13.971Z,12.95
2022-12-01T05:04:41.936Z,12.10
2022-12-01T05:07:09.503Z,12.10
2022-12-01T05:09:37.033Z,11.18
2022-12-01T05:12:05.066Z,9.73
2022-12-01T05:14:32.514Z,13.70
2022-12-01T05:17:00.659Z,12.82
2022-12-01T05:19:47.548Z,15.35
2022-12-01T05:22:15.219Z,11.65
2022-12-01T05:24:42.945Z,13.13
2022-12-01T05:27:10.378Z,13.65
2022-12-01T05:29:37.815Z,12.73
2022-12-01T05:32:06.065Z,12.95
2022-12-01T05:34:33.669Z,11.75
2022-12-01T05:37:01.097Z,14.60
2022-12-01T05:39:28.817Z,12.88
2022-12-01T05:41:56.295Z,15.63
2022-12-01T05:44:23.707Z,13.38
2022-12-01T05:46:51.474Z,11.65
2022-12-01T05:49:18.894Z,12.70
2022-12-01T05:51:46.305Z,12.30
2022-12-01T05:54:14.016Z,12.32
2022-12-01T05:56:43.488Z,14.43
2022-12-01T05:59:10.943Z,11.48
2022-12-01T06:01:38.751Z,11.97
2022-12-01T06:04:06.480Z,12.77
2022-12-01T06:06:33.961Z,13.02
2022-12-01T06:09:01.365Z,9.95
2022-12-01T06:11:29.055Z,12.52
2022-12-01T06:13:56.582Z,10.93
2022-12-01T06:16:24.080Z,11.30
2022-12-01T06:18:52.222Z,11.48
2022-12-01T06:21:19.622Z,9.70
2022-12-01T06:23:47.103Z,10.02
2022-12-01T06:26:14.786Z,11.47
2022-12-01T06:28:42.203Z,9.73
2022-12-01T06:31:09.645Z,12.37
2022-12-01T06:33:37.349Z,10.93
2022-12-01T06:36:06.996Z,11.55
2022-12-01T06:38:36.569Z,11.40
2022-12-01T06:41:05.524Z,13.38
2022-12-01T06:43:36.656Z,11.18
2022-12-01T06:46:06.055Z,11.57
2022-12-01T06:48:34.476Z,13.00
2022-12-01T06:51:02.368Z,10.73
2022-12-01T06:53:30.313Z,12.70
2022-12-01T06:56:04.701Z,14.02
2022-12-01T06:58:34.661Z,12.50
2022-12-01T07:01:11.977Z,11.80
2022-12-01T07:03:40.085Z,11.70
2022-12-01T07:06:07.530Z,12.55
2022-12-01T07:08:35.350Z,12.02
2022-12-01T07:11:06.243Z,9.98
2022-12-01T07:13:34.446Z,9.77
2022-12-01T07:16:03.481Z,11.67
2022-12-01T07:18:32.380Z,12.77
2022-12-01T07:21:01.503Z,10.98
2022-12-01T07:23:29.358Z,10.68
2022-12-01T07:26:06.250Z,10.23
2022-12-01T07:28:34.092Z,11.47
2022-12-01T07:31:21.935Z,12.45
2022-12-01T07:33:49.349Z,11.27
2022-12-01T07:36:17.197Z,14.05
2022-12-01T07:38:44.743Z,12.98
2022-12-01T07:41:14.986Z,13.40
2022-12-01T07:43:43.302Z,10.65
2022-12-01T07:46:22.239Z,13.80
2022-12-01T07:48:51.615Z,10.85
2022-12-01T07:51:19.904Z,12.77
2022-12-01T07:53:49.361Z,11.63
2022-12-01T07:56:18.065Z,12.15
2022-12-01T07:58:45.638Z,12.60
2022-12-01T08:01:17.518Z,11.12
2022-12-01T08:03:45.334Z,10.57
2022-12-01T08:06:12.754Z,11.63
2022-12-01T08:08:41.388Z,10.73
2022-12-01T08:11:15.161Z,12.65
2022-12-01T08:13:43.117Z,11.77
2022-12-01T08:16:13.759Z,11.57
2022-12-01T08:18:42.357Z,10.60
2022-12-01T08:21:12.771Z,9.70
2022-12-01T08:23:42.222Z,11.45
2022-12-01T08:26:14.259Z,10.75
2022-12-01T08:28:42.817Z,11.30
2022-12-01T08:31:14.343Z,12.00
2022-12-01T08:33:42.237Z,13.60
2022-12-01T08:36:10.087Z,14.32
2022-12-01T08:38:37.954Z,11.73
2022-12-01T08:41:08.866Z,11.57
2022-12-01T08:44:00.411Z,10.73
2022-12-01T08:46:31.728Z,10.20
2022-12-01T08:48:59.416Z,8.82
2022-12-01T08:51:27.786Z,9.40
2022-12-01T08:53:57.506Z,10.27
2022-12-01T08:56:37.935Z,10.57
2022-12-01T08:59:06.007Z,10.57
2022-12-01T09:01:34.210Z,11.32
2022-12-01T09:04:06.195Z,10.27
2022-12-01T09:06:42.551Z,11.38
2022-12-01T09:09:12.605Z,10.37
2022-12-01T09:11:41.079Z,12.32
2022-12-01T09:14:08.539Z,11.68
2022-12-01T09:16:36.208Z,11.05
2022-12-01T09:19:04.317Z,10.45
2022-12-01T09:21:33.966Z,12.20
2022-12-01T09:24:02.475Z,11.75
2022-12-01T09:26:30.612Z,11.27
2022-12-01T09:29:04.658Z,11.55
2022-12-01T09:31:32.968Z,8.52
2022-12-01T09:34:03.679Z,8.63
2022-12-01T09:36:32.944Z,10.57
2022-12-01T09:39:01.110Z,13.62
2022-12-01T09:41:39.654Z,12.30
2022-12-01T09:44:14.096Z,10.52
2022-12-01T09:46:51.733Z,8.30
2022-12-01T09:49:25.286Z,8.60
2022-12-01T09:51:54.353Z,9.68
2022-12-01T09:54:22.215Z,10.70
2022-12-01T09:56:53.366Z,11.50
2022-12-01T09:59:24.626Z,12.37
2022-12-01T10:01:56.966Z,12.52
2022-12-01T10:04:31.513Z,13.10
2022-12-01T10:07:12.829Z,11.05
2022-12-01T10:09:56.053Z,11.90
2022-12-01T10:12:27.923Z,11.50
2022-12-01T10:15:16.797Z,12.27
2022-12-01T10:17:53.130Z,11.02
2022-12-01T10:20:34.300Z,11.35
2022-12-01T10:23:15.361Z,11.75
2022-12-01T10:26:03.390Z,8.67
2022-12-01T10:28:36.474Z,10.60
2022-12-01T10:31:20.956Z,9.70
2022-12-01T10:33:59.802Z,11.48
2022-12-01T10:36:29.258Z,9.50
2022-12-01T10:38:56.725Z,9.70
2022-12-01T10:41:27.953Z,11.65
2022-12-01T10:44:01.015Z,12.70
2022-12-01T10:46:54.732Z,11.95
2022-12-01T10:49:36.959Z,8.82
2022-12-01T10:52:04.612Z,10.20
2022-12-01T10:54:36.786Z,13.52
2022-12-01T10:57:06.334Z,10.40
2022-12-01T10:59:56.898Z,13.23
2022-12-01T11:02:27.596Z,9.70
2022-12-01T11:04:57.742Z,10.47
2022-12-01T11:07:33.118Z,9.98
2022-12-01T11:10:18.686Z,10.73
2022-12-01T11:12:54.301Z,10.63
2022-12-01T11:15:26.674Z,11.95
2022-12-01T11:18:04.419Z,9.73
2022-12-01T11:20:35.341Z,10.07
2022-12-01T11:23:25.159Z,10.43
2022-12-01T11:26:17.790Z,9.02
2022-12-01T11:29:07.262Z,11.40
2022-12-01T11:31:46.653Z,12.60
2022-12-01T11:34:26.405Z,13.70
2022-12-01T11:36:58.079Z,10.50
2022-12-01T11:39:40.165Z,11.65
2022-12-01T11:42:13.699Z,12.13
2022-12-01T11:44:51.822Z,10.83
2022-12-01T11:47:24.344Z,13.18
2022-12-01T11:50:01.951Z,11.57
2022-12-01T11:52:32.825Z,11.30
2022-12-01T11:55:26.915Z,9.50
2022-12-01T11:58:03.963Z,12.07
2022-12-01T12:00:46.834Z,10.95
2022-12-01T12:03:33.668Z,11.10
2022-12-01T12:06:39.894Z,12.50
2022-12-01T12:09:10.860Z,10.38
2022-12-01T12:11:49.034Z,12.67
2022-12-01T12:14:43.705Z,11.68
2022-12-01T12:17:27.942Z,10.48
2022-12-01T12:20:15.243Z,12.18
2022-12-01T12:23:04.420Z,10.73
2022-12-01T12:25:55.491Z,10.90
2022-12-01T12:28:22.888Z,12.05
2022-12-01T12:31:35.186Z,12.85
2022-12-01T12:34:08.085Z,11.05
2022-12-01T12:37:26.642Z,12.63
2022-12-01T12:40:15.841Z,11.93
2022-12-01T12:43:04.898Z,12.07
2022-12-01T12:45:41.294Z,12.98
2022-12-01T12:49:22.691Z,13.10
2022-12-01T12:52:08.414Z,14.25
2022-12-01T12:54:59.869Z,12.73
2022-12-01T12:57:55.674Z,12.43
2022-12-01T13:00:28.927Z,11.35
2022-12-01T13:03:15.857Z,11.15
2022-12-01T13:05:50.563Z,11.43
2022-12-01T13:08:23.962Z,13.67
2022-12-01T13:11:04.778Z,10.95
2022-12-01T13:13:54.152Z,11.02
2022-12-01T13:16:34.018Z,10.75
2022-12-01T13:19:23.239Z,11.57
2022-12-01T13:21:53.563Z,13.10
2022-12-01T13:24:24.586Z,11.70
2022-12-01T13:26:57.818Z,11.85
2022-12-01T13:29:27.474Z,10.75
2022-12-01T13:31:55.592Z,13.57
2022-12-01T13:34:29.401Z,12.37
2022-12-01T13:36:57.200Z,13.15
2022-12-01T13:39:29.485Z,10.63
2022-12-01T13:42:00.688Z,11.32
2022-12-01T13:44:32.801Z,11.93
2022-12-01T13:47:26.384Z,14.20
2022-12-01T13:49:53.943Z,12.77
2022-12-01T13:52:21.588Z,11.10
2022-12-01T13:55:10.844Z,16.73
2022-12-01T13:57:44.326Z,13.93
2022-12-01T14:00:27.211Z,13.03
2022-12-01T14:03:13.353Z,12.93
2022-12-01T14:05:40.796Z,12.63
2022-12-01T14:08:23.346Z,14.10
2022-12-01T14:11:00.710Z,14.80
2022-12-01T14:13:29.881Z,14.33
2022-12-01T14:16:03.428Z,13.73
2022-12-01T14:18:35.826Z,14.68
2022-12-01T14:21:06.987Z,11.82
2022-12-01T14:24:05.476Z,13.48
2022-12-01T14:26:44.967Z,11.60
2022-12-01T14:29:29.130Z,20.02
2022-12-01T14:32:02.458Z,14.82
2022-12-01T14:34:34.218Z,13.50
2022-12-01T14:37:16.906Z,12.13
2022-12-01T14:39:49.836Z,15.30
2022-12-01T14:42:48.958Z,13.10
2022-12-01T14:45:21.911Z,12.00
2022-12-01T14:47:59.626Z,15.20
2022-12-01T14:50:42.229Z,13.00
2022-12-01T14:53:27.299Z,13.83
2022-12-01T14:56:14.166Z,13.07
2022-12-01T14:58:55.344Z,12.05
2022-12-01T15:01:24.422Z,11.77
2022-12-01T15:03:55.594Z,17.83
2022-12-01T15:06:27.250Z,15.87
2022-12-01T15:12:08.915Z,15.43
2022-12-01T15:14:47.557Z,16.95
2022-12-01T15:17:37.007Z,17.12
2022-12-01T15:20:25.008Z,17.13
2022-12-01T15:22:53.205Z,19.05
2022-12-01T15:25:21.334Z,17.50
2022-12-01T15:28:11.934Z,17.75
2022-12-01T15:30:45.587Z,13.77
2022-12-01T15:33:37.211Z,18.60
2022-12-01T15:36:07.610Z,23.02
2022-12-01T15:38:37.946Z,17.30
2022-12-01T15:43:59.023Z,18.35
2022-12-01T15:46:32.406Z,17.27
2022-12-01T15:49:18.093Z,16.30
2022-12-01T15:51:47.997Z,17.70
2022-12-01T15:54:29.050Z,13.88
2022-12-01T15:57:01.632Z,17.35
2022-12-01T15:59:34.964Z,16.40
2022-12-01T16:02:33.543Z,17.52
2022-12-01T16:05:17.161Z,20.30
2022-12-01T16:10:35.998Z,17.12
2022-12-01T16:13:38.363Z,17.63
2022-12-01T16:16:29.989Z,17.42
2022-12-01T16:19:09.342Z,17.33
2022-12-01T16:21:49.827Z,15.55
2022-12-01T16:24:22.443Z,14.50
2022-12-01T16:27:00.618Z,15.77
2022-12-01T16:29:29.942Z,19.20
2022-12-01T16:32:24.189Z,16.67
2022-12-01T16:34:53.334Z,15.68
2022-12-01T16:37:22.365Z,14.68
2022-12-01T16:39:50.104Z,15.67
2022-12-01T16:42:23.495Z,14.10
2022-12-01T16:44:52.247Z,17.00
2022-12-01T16:47:21.586Z,16.37
2022-12-01T16:49:49.901Z,16.08
2022-12-01T16:55:33.197Z,15.88
2022-12-01T16:58:00.975Z,14.85
2022-12-01T17:00:29.504Z,16.05
2022-12-01T17:02:57.555Z,12.90
2022-12-01T17:05:25.523Z,16.90
2022-12-01T17:07:53.444Z,16.02
2022-12-01T17:10:21.841Z,18.60
2022-12-01T17:12:50.630Z,14.85
2022-12-01T17:15:18.427Z,15.05
2022-12-01T17:17:45.992Z,20.20
2022-12-01T17:20:14.199Z,16.92
2022-12-01T17:22:41.685Z,15.73
2022-12-01T17:25:12.573Z,13.80
2022-12-01T17:27:41.987Z,15.68
2022-12-01T17:30:10.532Z,16.10
2022-12-01T17:32:38.691Z,15.30
2022-12-01T17:35:06.860Z,18.30
2022-12-01T17:37:36.912Z,17.75
2022-12-01T17:40:06.530Z,17.87
2022-12-01T17:42:34.596Z,18.53
2022-12-01T17:45:02.303Z,19.73
2022-12-01T17:47:29.741Z,18.17
2022-12-01T17:49:57.493Z,16.75
2022-12-01T17:52:28.406Z,18.27
2022-12-01T17:54:56.596Z,18.77
2022-12-01T17:57:24.366Z,17.77
2022-12-01T17:59:51.781Z,20.77
2022-12-01T18:02:20.165Z,18.15
2022-12-01T18:04:48.013Z,21.30
2022-12-01T18:07:15.547Z,19.97
2022-12-01T18:09:42.949Z,20.75
2022-12-01T18:12:11.127Z,21.05
2022-12-01T18:14:38.636Z,23.08
2022-12-01T18:17:06.327Z,20.48
2022-12-01T18:19:34.019Z,22.37
2022-12-01T18:22:01.737Z,24.33
2022-12-01T18:24:32.038Z,22.45
2022-12-01T18:26:59.905Z,23.73
2022-12-01T18:29:28.771Z,25.08
2022-12-01T18:31:57.888Z,25.63
2022-12-01T18:34:26.783Z,29.85
2022-12-01T18:36:54.267Z,25.12
2022-12-01T18:39:21.942Z,28.85
2022-12-01T18:41:50.072Z,33.78
2022-12-01T18:44:17.537Z,28.57
2022-12-01T18:46:45.033Z,30.92
2022-12-01T18:49:13.475Z,29.98
2022-12-01T18:51:41.277Z,25.50
2022-12-01T18:54:13.186Z,31.80
2022-12-01T18:56:41.394Z,33.53
2022-12-01T18:59:11.074Z,34.25
2022-12-01T19:01:41.161Z,33.63
2022-12-01T19:04:10.091Z,32.78
2022-12-01T19:06:39.649Z,34.60
2022-12-01T19:09:09.495Z,32.93
2022-12-01T19:11:38.345Z,37.22
2022-12-01T19:14:06.074Z,35.03
2022-12-01T19:16:33.825Z,40.55
2022-12-01T19:19:01.722Z,35.20
2022-12-01T19:21:29.325Z,34.77
2022-12-01T19:23:56.943Z,36.08
2022-12-01T19:26:25.956Z,32.95
2022-12-01T19:28:53.535Z,31.83
2022-12-01T19:31:23.930Z,31.30
2022-12-01T19:33:53.924Z,28.53
2022-12-01T19:36:23.970Z,26.33
2022-12-01T19:38:52.617Z,31.27
2022-12-01T19:41:25.220Z,27.87
2022-12-01T19:43:54.006Z,27.35
2022-12-01T19:46:24.477Z,25.27
2022-12-01T19:48:57.779Z,24.80
2022-12-01T19:51:28.556Z,28.70
2022-12-01T19:53:56.262Z,25.35
2022-12-01T19:56:24.385Z,27.73
2022-12-01T19:58:52.352Z,27.03
2022-12-01T20:01:21.231Z,26.65
2022-12-01T20:03:51.481Z,26.85
2022-12-01T20:06:24.758Z,26.80
2022-12-01T20:08:54.250Z,25.50
2022-12-01T20:11:22.008Z,25.60
2022-12-01T20:13:49.863Z,26.95
2022-12-01T20:16:21.180Z,29.70
2022-12-01T20:18:49.352Z,26.55
2022-12-01T20:21:22.786Z,25.95
2022-12-01T20:23:57.788Z,29.20
2022-12-01T20:26:42.185Z,24.80
2022-12-01T20:29:18.691Z,24.35
2022-12-01T20:31:47.980Z,26.05
2022-12-01T20:34:19.213Z,26.40
2022-12-01T20:36:48.254Z,22.37
2022-12-01T20:39:16.117Z,24.12
2022-12-01T20:41:44.957Z,30.62
2022-12-01T20:44:13.881Z,24.37
2022-12-01T20:46:41.356Z,27.95
2022-12-01T20:49:09.513Z,26.10
2022-12-01T20:51:37.330Z,26.77
2022-12-01T20:56:55.551Z,26.37
2022-12-01T20:59:23.229Z,28.02
2022-12-01T21:01:50.873Z,26.23
2022-12-01T21:04:18.646Z,27.87
2022-12-01T21:06:46.346Z,29.00
2022-12-01T21:09:14.923Z,30.20
2022-12-01T21:12:05.394Z,27.73
2022-12-01T21:14:37.691Z,25.77
2022-12-01T21:17:37.401Z,26.62
2022-12-01T21:20:23.365Z,28.58
2022-12-01T21:22:51.616Z,24.67
2022-12-01T21:25:22.395Z,32.78
2022-12-01T21:27:50.655Z,30.80
2022-12-01T21:30:21.946Z,30.88
2022-12-01T21:32:49.898Z,33.50
2022-12-01T21:35:19.340Z,44.58
2022-12-01T21:37:48.430Z,34.72
2022-12-01T21:40:17.035Z,38.73
2022-12-01T21:42:45.189Z,42.75
2022-12-01T21:45:18.124Z,29.42
2022-12-01T21:47:45.919Z,30.88
2022-12-01T21:50:21.026Z,27.08
2022-12-01T21:52:49.447Z,27.13
2022-12-01T21:55:16.798Z,27.60
2022-12-01T21:57:47.217Z,27.10
2022-12-01T22:00:30.185Z,28.02
2022-12-01T22:03:21.987Z,28.70
2022-12-01T22:06:21.381Z,23.83
2022-12-01T22:08:43.283Z,25.88
2022-12-01T22:11:24.198Z,25.73
2022-12-01T22:13:54.459Z,28.92
2022-12-01T22:16:29.276Z,27.85
2022-12-01T22:18:59.672Z,27.00
2022-12-01T22:21:36.734Z,50.42
2022-12-01T22:24:10.193Z,55.33
2022-12-01T22:26:41.089Z,52.55
2022-12-01T22:29:30.735Z,51.47
2022-12-01T22:32:23.747Z,47.57
2022-12-01T22:34:55.354Z,37.95
2022-12-01T22:37:29.581Z,25.12
2022-12-01T22:39:57.533Z,23.60
2022-12-01T22:42:34.642Z,25.92
2022-12-01T22:45:27.700Z,25.43
2022-12-01T22:48:00.413Z,28.55
2022-12-01T22:50:31.101Z,27.75
2022-12-01T22:53:16.444Z,25.10
2022-12-01T22:55:44.357Z,25.58
2022-12-01T22:58:40.985Z,27.97
2022-12-01T23:01:22.525Z,36.80
2022-12-01T23:03:50.581Z,47.53
2022-12-01T23:06:54.481Z,53.25
2022-12-01T23:09:23.946Z,26.23
2022-12-01T23:12:09.751Z,27.40
2022-12-01T23:14:49.838Z,38.00
2022-12-01T23:17:24.574Z,36.53
2022-12-01T23:19:54.234Z,29.95
2022-12-01T23:22:21.980Z,35.67
2022-12-01T23:24:49.745Z,37.17
2022-12-01T23:27:18.159Z,31.05
2022-12-01T23:29:45.907Z,27.85
2022-12-01T23:32:13.345Z,26.90
2022-12-01T23:34:40.813Z,33.75
2022-12-01T23:37:37.110Z,30.47
2022-12-01T23:40:15.973Z,27.55
2022-12-01T23:42:43.827Z,26.37
2022-12-01T23:45:23.574Z,27.00
2022-12-01T23:47:54.526Z,23.10
2022-12-01T23:50:25.698Z,26.03
2022-12-01T23:52:54.318Z,32.38
2022-12-01T23:55:27.189Z,26.65
2022-12-01T23:57:55.701Z,25.52
